Terminal Aerodrome Forecast
Issued by NWS Grand Forks, ND

Home | Current Version | Previous Version | Text Only | Print | Product List | Glossary Off
Versions: 1 2 3 4 5 6 7 8 9 10 11 12 13 14 15

620
FTUS43 KFGF 282339
TAFFAR
TAF
KFAR 282339Z 2900/2924 05006KT P6SM SCT040
     FM290400 06005KT P6SM SKC
     FM291300 14004KT P6SM FEW060=

USA.gov is the U.S. government's official web portal to all federal, state and local government web resources and services.